Latest Weather Observations for Cessnock Airport

IDN60801

Issued at 9:05 pm EST Tuesday 22 July 2014 (issued every 30 minutes, with the page automatically refreshed every 10 minutes)

About weather observations | Map of weather stations | Latest weather observations for NSW | Other Formats
Station Details ID: 061260 Name: CESSNOCK AIRPORT AWS Lat: -32.79 Lon: 151.34 Height: 61.0 m
Data from the previous 72 hours. | See also: Recent months at Cessnock Airport
Date/Time
EST
Temp
°C
App
Temp
°C
Dew
Point
Rel
Hum
%
Delta-T
°C
Wind Press
QNH
hPa
Press
MSL
hPa
Rain
since 9 am
mm
Dir
 
Spd
km/h
Gust
km/h
Spd
kts
Gust
kts
22/09:00pm 4.6 3.0 4.5 99 0.0 SSW 2 6 1 3 1023.5 1023.5 1.0
22/08:30pm 5.4 3.0 5.1 98 0.1 SW 7 9 4 5 1023.5 - 1.0
22/08:00pm 6.4 5.5 6.1 98 0.1 CALM 0 0 0 0 1023.7 1023.7 1.0
22/07:30pm 6.8 4.6 6.2 96 0.3 SW 7 11 4 6 1023.7 - 1.0
22/07:00pm 7.5 5.0 6.6 94 0.4 WSW 9 13 5 7 1023.3 1023.3 1.0
22/06:30pm 8.9 6.5 8.6 98 0.1 SW 11 15 6 8 1023.1 - 1.0
22/06:00pm 8.9 8.4 7.8 93 0.5 CALM 0 7 0 4 1022.9 1022.9 1.0
22/05:30pm 11.0 10.8 8.9 87 1.0 CALM 0 6 0 3 1022.4 - 1.0
22/05:00pm 13.0 10.8 7.7 70 2.6 SSE 9 11 5 6 1022.0 1022.1 1.0
22/04:30pm 14.9 12.9 8.8 67 3.1 ESE 9 13 5 7 1021.7 - 1.0
22/04:00pm 15.4 14.9 10.6 73 2.5 ESE 4 11 2 6 1021.6 1021.7 1.0
22/03:30pm 13.9 11.8 9.9 77 2.1 E 11 13 6 7 1021.4 - 1.0
22/03:00pm 14.7 13.0 9.9 73 2.5 ESE 9 13 5 7 1021.4 1021.5 1.0
22/02:30pm 18.6 16.2 7.1 47 5.8 NE 9 13 5 7 1021.0 - 0.0
22/02:00pm 16.2 14.0 7.9 58 4.2 SSE 9 13 5 7 1021.0 1021.1 0.0
22/01:30pm 17.6 15.9 7.4 51 5.1 ENE 6 11 3 6 1021.0 - 0.0
22/01:00pm 16.1 13.5 7.8 58 4.2 SE 11 13 6 7 1021.4 1021.5 0.0
22/12:30pm 18.1 16.0 8.1 52 5.1 ENE 9 15 5 8 1021.6 - 0.0
22/12:00pm 17.2 15.4 8.1 55 4.6 SSE 7 17 4 9 1022.3 1022.4 0.0
22/11:30am 16.4 13.8 7.9 57 4.3 SSE 11 19 6 10 1023.0 - 0.0
22/11:00am 16.3 14.4 9.0 62 3.8 SW 9 17 5 9 1023.5 1023.5 0.0
22/10:30am 16.1 13.5 9.3 64 3.5 S 13 20 7 11 1023.8 - 0.0
22/10:00am 15.1 13.9 9.7 70 2.8 SSE 6 11 3 6 1024.0 1024.0 0.0
22/09:30am 13.8 14.1 11.0 83 1.5 CALM 0 6 0 3 1024.1 - 0.0
22/09:00am 11.9 11.7 11.9 100 0.0 NNE 4 7 2 4 1024.1 1024.1 0.0
22/08:30am 8.6 7.1 8.6 100 0.0 NE 6 7 3 4 1024.2 - 0.0
22/08:00am 5.9 5.0 5.9 100 0.0 CALM 0 0 0 0 1023.8 1023.8 0.0
22/07:30am 5.4 4.4 5.4 100 0.0 CALM 0 0 0 0 1023.5 - 0.0
22/07:00am 5.3 4.2 5.3 100 0.0 CALM 0 0 0 0 1023.3 1023.3 0.0
22/06:30am 6.7 5.9 6.7 100 0.0 CALM 0 0 0 0 1023.0 - 0.0
22/06:00am 6.7 4.8 6.7 100 0.0 ESE 6 6 3 3 1022.9 1022.9 0.0
22/05:30am 6.8 6.1 6.8 100 0.0 CALM 0 0 0 0 1022.7 - 0.0
22/05:00am 6.1 5.2 6.1 100 0.0 CALM 0 4 0 2 1022.3 1022.4 0.0
22/04:30am 6.1 4.1 6.1 100 0.0 NE 6 7 3 4 1022.0 - 0.0
22/04:00am 6.9 6.2 6.9 100 0.0 CALM 0 0 0 0 1022.2 1022.3 0.0
22/03:30am 6.4 5.6 6.4 100 0.0 CALM 0 0 0 0 1022.2 - 0.0
22/03:00am 6.9 6.2 6.9 100 0.0 CALM 0 0 0 0 1022.3 1022.4 0.0
22/02:30am 6.6 5.8 6.6 100 0.0 CALM 0 0 0 0 1022.3 - 0.0
22/02:00am 6.2 5.3 6.2 100 0.0 CALM 0 0 0 0 1022.4 1022.5 0.0
22/01:30am 5.9 4.6 5.9 100 0.0 N 2 6 1 3 1022.7 - 0.0
22/01:00am 5.8 4.8 5.7 99 0.0 N 0 0 0 0 1022.8 1022.8 0.0
22/12:30am 6.7 5.9 6.7 100 0.0 CALM 0 0 0 0 1022.9 - 0.0
22/12:00am 7.2 6.6 7.2 100 0.0 SW 0 0 0 0 1023.0 1023.0 0.0
 
Date/Time
EST
Temp
°C
App
Temp
°C
Dew
Point
Rel
Hum
%
Delta-T
°C
Wind Press
QNH
hPa
Press
MSL
hPa
Rain
since 9 am
mm
Dir
 
Spd
km/h
Gust
km/h
Spd
kts
Gust
kts
21/11:30pm 6.5 4.5 6.4 99 0.0 SW 6 7 3 4 1023.1 - 0.0
21/11:00pm 6.7 4.7 6.3 97 0.2 SW 6 6 3 3 1023.3 1023.3 0.0
21/10:30pm 7.9 6.2 7.6 98 0.1 SW 6 7 3 4 1023.3 - 0.0
21/10:00pm 7.8 6.0 7.2 96 0.3 WSW 6 7 3 4 1023.5 1023.5 0.0
21/09:30pm 8.1 7.6 7.7 97 0.2 CALM 0 0 0 0 1023.6 - 0.0
21/09:00pm 8.2 6.7 7.0 92 0.6 WNW 4 7 2 4 1023.6 1023.6 0.0
21/08:30pm 9.1 7.3 7.2 88 0.9 WSW 6 7 3 4 1023.5 - 0.0
21/08:00pm 9.6 7.3 7.5 87 1.0 SW 9 11 5 6 1023.6 1023.6 0.0
21/07:30pm 9.3 7.4 7.4 88 0.9 WSW 7 9 4 5 1023.6 - 0.0
21/07:00pm 9.2 7.3 6.5 83 1.2 WSW 6 7 3 4 1023.4 1023.4 0.0
21/06:30pm 10.9 9.0 6.8 76 1.9 SSE 6 9 3 5 1023.3 - 0.0
21/06:00pm 12.9 10.9 8.6 75 2.1 SE 9 11 5 6 1023.1 1023.1 0.0
21/05:30pm 13.5 11.4 8.4 71 2.6 SE 9 11 5 6 1022.8 - 0.0
21/05:00pm 14.5 12.4 8.2 66 3.1 SE 9 17 5 9 1022.4 1022.5 0.0
21/04:30pm 15.6 12.4 8.4 62 3.7 SE 15 19 8 10 1022.3 - 0.0
21/04:00pm 16.5 13.7 6.9 53 4.7 E 11 15 6 8 1022.2 1022.3 0.0
21/03:30pm 16.2 13.7 6.6 53 4.7 E 9 11 5 6 1022.2 - 0.0
21/03:00pm 16.8 13.9 6.6 51 5.0 E 11 15 6 8 1022.1 1022.2 0.0
21/02:30pm 17.0 13.4 6.8 51 5.1 ESE 15 20 8 11 1022.0 - 0.0
21/02:00pm 17.8 14.5 6.3 47 5.7 ESE 13 19 7 10 1022.1 1022.2 0.0
21/01:30pm 16.4 14.3 6.0 50 5.1 NNE 6 9 3 5 1022.3 - 0.0
21/01:00pm 16.2 14.4 7.2 55 4.5 E 6 9 3 5 1022.7 1022.7 0.0
21/12:30pm 16.5 13.6 6.3 51 5.0 E 11 17 6 9 1023.1 - 0.0
21/12:00pm 16.9 14.0 6.7 51 5.0 NNE 11 13 6 7 1023.7 1023.7 0.0
21/11:30am 16.9 14.6 7.3 53 4.8 N 9 13 5 7 1024.3 - 0.0
21/11:00am 15.9 14.2 7.7 58 4.1 N 6 11 3 6 1025.1 1025.1 0.0
21/10:30am 16.0 14.8 8.0 59 4.0 ENE 4 9 2 5 1025.5 - 0.0
21/10:00am 14.1 12.2 7.4 64 3.3 N 7 9 4 5 1025.9 1026.0 0.0
21/09:30am 12.4 10.9 9.2 81 1.6 N 7 9 4 5 1026.0 - 0.0
21/09:00am 10.3 8.7 8.7 90 0.8 N 7 9 4 5 1026.0 1026.1 0.0
21/08:30am 10.2 8.7 9.3 94 0.4 NNW 7 9 4 5 1025.9 - 0.0
21/08:00am 8.4 7.3 8.4 100 0.0 N 4 7 2 4 1025.9 1026.0 0.0
21/07:30am 6.2 5.3 6.2 100 0.0 CALM 0 0 0 0 1025.7 - 0.0
21/07:00am 5.7 4.7 5.6 99 0.0 CALM 0 0 0 0 1025.6 1025.7 0.0
21/06:30am 6.9 6.2 6.8 99 0.0 CALM 0 0 0 0 1025.4 - 0.0
21/06:00am 7.8 7.3 7.8 100 0.0 CALM 0 0 0 0 1025.4 1025.5 0.0
21/05:30am 7.9 7.4 7.9 100 0.0 CALM 0 0 0 0 1025.1 - 0.0
21/05:00am 7.7 6.4 7.7 100 0.0 W 4 7 2 4 1024.9 1024.9 0.0
21/04:30am 8.0 6.4 8.0 100 0.0 NW 6 7 3 4 1025.0 - 0.0
21/04:00am 8.5 7.0 8.5 100 0.0 ENE 6 9 3 5 1024.9 1024.9 0.0
21/03:30am 8.4 8.0 8.4 100 0.0 CALM 0 0 0 0 1024.8 - 0.0
21/03:00am 7.9 5.7 7.9 100 0.0 SW 9 13 5 7 1024.8 1024.8 0.0
21/02:30am 7.0 4.6 7.0 100 0.0 W 9 11 5 6 1024.8 - 0.0
21/02:00am 5.9 5.0 5.9 100 0.0 CALM 0 0 0 0 1024.9 1024.9 0.0
21/01:30am 5.7 4.7 5.6 99 0.0 CALM 0 0 0 0 1025.0 - 0.0
21/01:00am 6.1 5.2 6.0 99 0.0 CALM 0 0 0 0 1024.9 1024.9 0.0
21/12:30am 6.1 4.4 6.1 100 0.0 N 4 7 2 4 1025.0 - 0.0
21/12:00am 5.9 5.0 5.9 100 0.0 CALM 0 0 0 0 1025.1 1025.1 0.0
 
Date/Time
EST
Temp
°C
App
Temp
°C
Dew
Point
Rel
Hum
%
Delta-T
°C
Wind Press
QNH
hPa
Press
MSL
hPa
Rain
since 9 am
mm
Dir
 
Spd
km/h
Gust
km/h
Spd
kts
Gust
kts
20/11:30pm 4.7 3.5 4.4 98 0.1 CALM 0 0 0 0 1025.4 - 0.0
20/11:00pm 4.8 3.6 4.5 98 0.1 CALM 0 0 0 0 1025.5 1025.6 0.0
20/10:30pm 5.8 4.8 5.4 97 0.2 CALM 0 0 0 0 1025.5 - 0.0
20/10:00pm 6.3 4.9 5.7 96 0.3 N 2 6 1 3 1025.6 1025.7 0.0
20/09:30pm 6.8 5.9 6.1 95 0.3 CALM 0 0 0 0 1025.6 - 0.0
20/09:00pm 7.2 6.4 6.3 94 0.4 CALM 0 0 0 0 1025.5 1025.6 0.0
20/08:30pm 8.1 6.9 6.4 89 0.8 N 2 6 1 3 1025.4 - 0.0
20/08:00pm 8.3 7.3 5.4 82 1.3 CALM 0 0 0 0 1025.4 1025.5 0.0
20/07:30pm 9.6 8.2 5.6 76 1.8 SW 2 6 1 3 1025.2 - 0.0
20/07:00pm 11.6 9.2 7.1 74 2.1 SW 9 11 5 6 1024.9 1024.9 0.0
20/06:30pm 11.9 9.8 6.8 71 2.4 S 7 13 4 7 1024.8 - 0.0
20/06:00pm 12.7 10.3 7.2 69 2.7 S 9 11 5 6 1024.7 1024.7 0.0
20/05:30pm 13.2 10.8 7.2 67 2.9 S 9 15 5 8 1024.5 - 0.0
20/05:00pm 13.4 10.3 7.4 67 2.9 S 13 20 7 11 1024.5 1024.5 0.0
20/04:30pm 13.6 9.8 7.6 67 3.0 SSW 17 24 9 13 1024.3 - 0.0
20/04:00pm 13.9 9.8 7.9 67 3.0 S 19 30 10 16 1024.3 1024.3 0.0
20/03:30pm 14.0 9.3 7.8 66 3.1 SSW 22 28 12 15 1024.2 - 0.0
20/03:00pm 14.2 10.1 7.7 65 3.2 S 19 26 10 14 1024.1 1024.1 0.0
20/02:30pm 15.0 10.5 7.1 59 3.9 S 20 30 11 16 1023.9 - 0.0
20/02:00pm 15.8 11.3 6.8 55 4.4 S 20 32 11 17 1023.6 1023.6 0.0
20/01:30pm 15.9 11.3 6.3 53 4.7 S 20 33 11 18 1023.6 - 0.0
20/01:00pm 16.0 11.4 6.7 54 4.6 SSW 20 33 11 18 1023.7 1023.7 0.0
20/12:30pm 15.0 10.5 6.3 56 4.2 SSW 19 24 10 13 1024.0 - 0.0
20/12:00pm 14.8 10.2 6.4 57 4.0 SSW 20 28 11 15 1024.3 1024.3 0.0
20/11:30am 14.6 9.9 6.2 57 4.0 SSW 20 33 11 18 1024.6 - 0.0
20/11:00am 14.8 9.2 5.6 54 4.4 S 24 32 13 17 1024.8 1024.8 0.0
20/10:30am 14.5 9.9 5.6 55 4.2 SSW 19 26 10 14 1024.7 - 0.0
20/10:00am 14.0 9.4 5.4 56 4.0 SSW 19 30 10 16 1024.7 1024.7 0.0
20/09:30am 13.4 8.4 4.6 55 4.1 S 20 28 11 15 1024.5 - 0.0
20/09:00am 12.7 8.6 4.4 57 3.8 SSW 15 28 8 15 1024.4 1024.4 0.0
20/08:30am 11.9 7.4 4.4 60 3.4 SSW 17 24 9 13 1024.2 - 0.0
20/08:00am 12.0 8.2 3.8 57 3.7 SW 13 20 7 11 1024.1 1024.1 0.0
20/07:30am 10.9 7.4 3.7 61 3.2 SSW 11 17 6 9 1023.9 - 0.0
20/07:00am 10.6 6.6 2.9 59 3.3 SSW 13 24 7 13 1023.5 1023.5 0.0
20/06:30am 10.6 6.6 2.7 58 3.4 SSW 13 20 7 11 1023.1 - 0.0
20/06:00am 11.3 6.5 2.6 55 3.8 SSW 17 28 9 15 1022.7 1022.7 0.0
20/05:30am 10.8 6.4 2.6 57 3.5 SSW 15 22 8 12 1022.6 - 0.0
20/05:00am 11.0 5.9 2.8 57 3.5 S 19 30 10 16 1022.2 1022.3 0.0
20/04:30am 11.1 7.0 2.4 55 3.7 SSW 13 24 7 13 1022.4 - 0.0
20/04:00am 11.1 7.0 2.2 54 3.8 SW 13 20 7 11 1022.2 1022.3 0.0
20/03:30am 11.5 6.2 2.0 52 4.1 SSW 19 33 10 18 1022.2 - 0.0
20/03:00am 11.5 6.2 1.7 51 4.1 SSW 19 26 10 14 1022.6 1022.6 0.0
20/02:30am 11.5 6.0 0.9 48 4.4 SSW 19 28 10 15 1022.6 - 0.0
20/02:00am 11.1 6.5 1.4 51 4.1 SSW 15 24 8 13 1022.4 1022.5 0.0
20/01:30am 11.6 6.2 1.5 50 4.3 SW 19 28 10 15 1022.4 - 0.0
20/01:00am 11.4 6.1 1.6 51 4.1 SW 19 24 10 13 1022.2 1022.3 0.0
20/12:30am 11.8 6.5 1.7 50 4.3 SSW 19 26 10 14 1022.4 - 0.0
20/12:00am 11.6 7.0 1.3 49 4.3 SW 15 20 8 11 1022.7 1022.7 0.0
 
Date/Time
EST
Temp
°C
App
Temp
°C
Dew
Point
Rel
Hum
%
Delta-T
°C
Wind Press
QNH
hPa
Press
MSL
hPa
Rain
since 9 am
mm
Dir
 
Spd
km/h
Gust
km/h
Spd
kts
Gust
kts
19/11:30pm 11.8 7.2 1.4 49 4.4 SSW 15 24 8 13 1022.9 - 0.0
19/11:00pm 11.8 7.6 1.7 50 4.3 SW 13 19 7 10 1023.1 1023.1 0.0
19/10:30pm 10.4 7.7 2.5 58 3.4 SSW 6 15 3 8 1023.3 - 0.0
19/10:00pm 8.9 7.1 1.1 58 3.2 CALM 0 6 0 3 1023.2 1023.2 0.0
19/09:30pm 9.2 7.1 1.6 59 3.2 SSW 2 9 1 5 1023.4 - 0.0

Other Formats:

Comma delimited format used in spreadsheet applications
http://www.bom.gov.au/fwo/IDN60801/IDN60801.95771.axf

JavaScript Object Notation format (JSON) in row-major order
http://www.bom.gov.au/fwo/IDN60801/IDN60801.95771.json